sensor_id;sensor_type;location;lat;lon;timestamp;P1;P2;P0
62249;PMS5003;48237;50.140;8.486;2023-01-28T00:01:11;8;6;
62249;PMS5003;48237;50.140;8.486;2023-01-28T00:03:40;7;5;
62249;PMS5003;48237;50.140;8.486;2023-01-28T00:06:08;10;7;
62249;PMS5003;48237;50.140;8.486;2023-01-28T00:08:38;6;5;
62249;PMS5003;48237;50.140;8.486;2023-01-28T00:11:05;10;7;
62249;PMS5003;48237;50.140;8.486;2023-01-28T00:13:34;7;6;
62249;PMS5003;48237;50.140;8.486;2023-01-28T00:16:02;10;7;
62249;PMS5003;48237;50.140;8.486;2023-01-28T00:18:31;7;6;
62249;PMS5003;48237;50.140;8.486;2023-01-28T00:21:00;6;6;
62249;PMS5003;48237;50.140;8.486;2023-01-28T00:23:30;5;5;
62249;PMS5003;48237;50.140;8.486;2023-01-28T00:25:59;8;6;
62249;PMS5003;48237;50.140;8.486;2023-01-28T00:28:27;9;6;
62249;PMS5003;48237;50.140;8.486;2023-01-28T00:30:55;7;5;
62249;PMS5003;48237;50.140;8.486;2023-01-28T00:33:22;6;6;
62249;PMS5003;48237;50.140;8.486;2023-01-28T00:35:56;7;6;
62249;PMS5003;48237;50.140;8.486;2023-01-28T00:38:23;6;5;
62249;PMS5003;48237;50.140;8.486;2023-01-28T00:40:50;10;6;
62249;PMS5003;48237;50.140;8.486;2023-01-28T00:43:18;6;6;
62249;PMS5003;48237;50.140;8.486;2023-01-28T00:45:46;5;5;
62249;PMS5003;48237;50.140;8.486;2023-01-28T00:48:13;7;5;
62249;PMS5003;48237;50.140;8.486;2023-01-28T00:50:40;5;5;
62249;PMS5003;48237;50.140;8.486;2023-01-28T00:53:08;6;6;
62249;PMS5003;48237;50.140;8.486;2023-01-28T00:55:35;5;5;
62249;PMS5003;48237;50.140;8.486;2023-01-28T00:58:02;8;6;
62249;PMS5003;48237;50.140;8.486;2023-01-28T01:00:29;6;5;
62249;PMS5003;48237;50.140;8.486;2023-01-28T01:02:57;8;8;
62249;PMS5003;48237;50.140;8.486;2023-01-28T01:05:25;5;5;
62249;PMS5003;48237;50.140;8.486;2023-01-28T01:07:52;4;4;
62249;PMS5003;48237;50.140;8.486;2023-01-28T01:10:19;7;7;
62249;PMS5003;48237;50.140;8.486;2023-01-28T01:12:48;8;5;
62249;PMS5003;48237;50.140;8.486;2023-01-28T01:15:16;9;6;
62249;PMS5003;48237;50.140;8.486;2023-01-28T01:17:45;4;4;
62249;PMS5003;48237;50.140;8.486;2023-01-28T01:20:15;8;4;
62249;PMS5003;48237;50.140;8.486;2023-01-28T01:22:44;5;5;
62249;PMS5003;48237;50.140;8.486;2023-01-28T01:25:13;6;4;
62249;PMS5003;48237;50.140;8.486;2023-01-28T01:27:41;7;6;
62249;PMS5003;48237;50.140;8.486;2023-01-28T01:30:09;7;5;
62249;PMS5003;48237;50.140;8.486;2023-01-28T01:32:37;7;6;
62249;PMS5003;48237;50.140;8.486;2023-01-28T01:35:04;10;10;
62249;PMS5003;48237;50.140;8.486;2023-01-28T01:37:32;7;7;
62249;PMS5003;48237;50.140;8.486;2023-01-28T01:40:00;5;4;
62249;PMS5003;48237;50.140;8.486;2023-01-28T01:42:27;6;6;
62249;PMS5003;48237;50.140;8.486;2023-01-28T01:44:56;6;6;
62249;PMS5003;48237;50.140;8.486;2023-01-28T01:47:26;7;7;
62249;PMS5003;48237;50.140;8.486;2023-01-28T01:50:02;6;5;
62249;PMS5003;48237;50.140;8.486;2023-01-28T01:52:34;7;7;
62249;PMS5003;48237;50.140;8.486;2023-01-28T01:55:03;6;6;
62249;PMS5003;48237;50.140;8.486;2023-01-28T01:57:35;4;4;
62249;PMS5003;48237;50.140;8.486;2023-01-28T02:00:03;6;5;
62249;PMS5003;48237;50.140;8.486;2023-01-28T02:02:33;6;6;
62249;PMS5003;48237;50.140;8.486;2023-01-28T02:05:05;4;4;
62249;PMS5003;48237;50.140;8.486;2023-01-28T02:07:34;9;7;
62249;PMS5003;48237;50.140;8.486;2023-01-28T02:10:02;12;6;
62249;PMS5003;48237;50.140;8.486;2023-01-28T02:12:33;6;6;
62249;PMS5003;48237;50.140;8.486;2023-01-28T02:15:03;6;5;
62249;PMS5003;48237;50.140;8.486;2023-01-28T02:17:34;6;6;
62249;PMS5003;48237;50.140;8.486;2023-01-28T02:20:03;7;7;
62249;PMS5003;48237;50.140;8.486;2023-01-28T02:22:40;8;8;
62249;PMS5003;48237;50.140;8.486;2023-01-28T02:25:41;6;6;
62249;PMS5003;48237;50.140;8.486;2023-01-28T02:28:53;8;8;
62249;PMS5003;48237;50.140;8.486;2023-01-28T02:31:28;10;7;
62249;PMS5003;48237;50.140;8.486;2023-01-28T02:34:01;7;6;
62249;PMS5003;48237;50.140;8.486;2023-01-28T02:36:35;6;6;
62249;PMS5003;48237;50.140;8.486;2023-01-28T02:39:11;10;6;
62249;PMS5003;48237;50.140;8.486;2023-01-28T02:41:45;4;4;
62249;PMS5003;48237;50.140;8.486;2023-01-28T02:44:15;5;5;
62249;PMS5003;48237;50.140;8.486;2023-01-28T02:46:42;6;6;
62249;PMS5003;48237;50.140;8.486;2023-01-28T02:49:11;7;6;
62249;PMS5003;48237;50.140;8.486;2023-01-28T02:51:45;4;4;
62249;PMS5003;48237;50.140;8.486;2023-01-28T02:54:28;8;5;
62249;PMS5003;48237;50.140;8.486;2023-01-28T02:57:08;8;5;
62249;PMS5003;48237;50.140;8.486;2023-01-28T02:59:46;4;3;
62249;PMS5003;48237;50.140;8.486;2023-01-28T03:02:22;5;4;
62249;PMS5003;48237;50.140;8.486;2023-01-28T03:04:57;5;4;
62249;PMS5003;48237;50.140;8.486;2023-01-28T03:07:30;7;4;
62249;PMS5003;48237;50.140;8.486;2023-01-28T03:10:01;7;6;
62249;PMS5003;48237;50.140;8.486;2023-01-28T03:12:30;5;5;
62249;PMS5003;48237;50.140;8.486;2023-01-28T03:15:02;4;4;
62249;PMS5003;48237;50.140;8.486;2023-01-28T03:17:34;5;5;
62249;PMS5003;48237;50.140;8.486;2023-01-28T03:20:07;4;4;
62249;PMS5003;48237;50.140;8.486;2023-01-28T03:22:36;8;6;
62249;PMS5003;48237;50.140;8.486;2023-01-28T03:25:06;6;4;
62249;PMS5003;48237;50.140;8.486;2023-01-28T03:27:38;6;6;
62249;PMS5003;48237;50.140;8.486;2023-01-28T03:30:14;7;5;
62249;PMS5003;48237;50.140;8.486;2023-01-28T03:32:45;8;7;
62249;PMS5003;48237;50.140;8.486;2023-01-28T03:35:14;7;6;
62249;PMS5003;48237;50.140;8.486;2023-01-28T03:37:43;8;6;
62249;PMS5003;48237;50.140;8.486;2023-01-28T03:40:11;6;5;
62249;PMS5003;48237;50.140;8.486;2023-01-28T03:42:38;6;4;
62249;PMS5003;48237;50.140;8.486;2023-01-28T03:45:06;8;7;
62249;PMS5003;48237;50.140;8.486;2023-01-28T03:47:34;4;4;
62249;PMS5003;48237;50.140;8.486;2023-01-28T03:50:01;8;6;
62249;PMS5003;48237;50.140;8.486;2023-01-28T03:52:29;6;3;
62249;PMS5003;48237;50.140;8.486;2023-01-28T03:54:57;9;6;
62249;PMS5003;48237;50.140;8.486;2023-01-28T03:57:25;7;7;
62249;PMS5003;48237;50.140;8.486;2023-01-28T03:59:53;6;6;
62249;PMS5003;48237;50.140;8.486;2023-01-28T04:02:21;4;4;
62249;PMS5003;48237;50.140;8.486;2023-01-28T04:04:49;6;5;
62249;PMS5003;48237;50.140;8.486;2023-01-28T04:07:16;6;6;
62249;PMS5003;48237;50.140;8.486;2023-01-28T04:09:43;6;4;
62249;PMS5003;48237;50.140;8.486;2023-01-28T04:12:10;8;6;
62249;PMS5003;48237;50.140;8.486;2023-01-28T04:14:38;7;4;
62249;PMS5003;48237;50.140;8.486;2023-01-28T04:17:05;6;6;
62249;PMS5003;48237;50.140;8.486;2023-01-28T04:19:32;6;6;
62249;PMS5003;48237;50.140;8.486;2023-01-28T04:21:59;3;3;
62249;PMS5003;48237;50.140;8.486;2023-01-28T04:24:27;8;5;
62249;PMS5003;48237;50.140;8.486;2023-01-28T04:26:54;4;4;
62249;PMS5003;48237;50.140;8.486;2023-01-28T04:29:21;5;5;
62249;PMS5003;48237;50.140;8.486;2023-01-28T04:31:48;6;3;
62249;PMS5003;48237;50.140;8.486;2023-01-28T04:34:16;7;4;
62249;PMS5003;48237;50.140;8.486;2023-01-28T04:36:43;4;4;
62249;PMS5003;48237;50.140;8.486;2023-01-28T04:39:10;5;4;
62249;PMS5003;48237;50.140;8.486;2023-01-28T04:41:37;4;4;
62249;PMS5003;48237;50.140;8.486;2023-01-28T04:44:05;7;5;
62249;PMS5003;48237;50.140;8.486;2023-01-28T04:46:32;3;3;
62249;PMS5003;48237;50.140;8.486;2023-01-28T04:48:59;5;4;
62249;PMS5003;48237;50.140;8.486;2023-01-28T04:51:26;6;5;
62249;PMS5003;48237;50.140;8.486;2023-01-28T04:53:54;4;3;
62249;PMS5003;48237;50.140;8.486;2023-01-28T04:56:21;11;6;
62249;PMS5003;48237;50.140;8.486;2023-01-28T04:58:48;6;4;
62249;PMS5003;48237;50.140;8.486;2023-01-28T05:01:16;5;5;
62249;PMS5003;48237;50.140;8.486;2023-01-28T05:03:43;6;4;
62249;PMS5003;48237;50.140;8.486;2023-01-28T05:06:10;4;3;
62249;PMS5003;48237;50.140;8.486;2023-01-28T05:08:37;5;5;
62249;PMS5003;48237;50.140;8.486;2023-01-28T05:11:05;5;5;
62249;PMS5003;48237;50.140;8.486;2023-01-28T05:13:32;6;4;
62249;PMS5003;48237;50.140;8.486;2023-01-28T05:15:59;7;4;
62249;PMS5003;48237;50.140;8.486;2023-01-28T05:18:26;5;5;
62249;PMS5003;48237;50.140;8.486;2023-01-28T05:20:54;7;5;
62249;PMS5003;48237;50.140;8.486;2023-01-28T05:23:21;8;5;
62249;PMS5003;48237;50.140;8.486;2023-01-28T05:25:48;8;5;
62249;PMS5003;48237;50.140;8.486;2023-01-28T05:28:15;7;7;
62249;PMS5003;48237;50.140;8.486;2023-01-28T05:30:42;7;5;
62249;PMS5003;48237;50.140;8.486;2023-01-28T05:33:10;6;5;
62249;PMS5003;48237;50.140;8.486;2023-01-28T05:35:37;4;4;
62249;PMS5003;48237;50.140;8.486;2023-01-28T05:38:04;8;6;
62249;PMS5003;48237;50.140;8.486;2023-01-28T05:40:31;5;4;
62249;PMS5003;48237;50.140;8.486;2023-01-28T05:42:59;9;7;
62249;PMS5003;48237;50.140;8.486;2023-01-28T05:45:26;6;5;
62249;PMS5003;48237;50.140;8.486;2023-01-28T05:47:53;8;4;
62249;PMS5003;48237;50.140;8.486;2023-01-28T05:50:20;4;4;
62249;PMS5003;48237;50.140;8.486;2023-01-28T05:52:47;10;7;
62249;PMS5003;48237;50.140;8.486;2023-01-28T05:55:15;7;5;
62249;PMS5003;48237;50.140;8.486;2023-01-28T05:57:42;8;5;
62249;PMS5003;48237;50.140;8.486;2023-01-28T06:00:10;7;6;
62249;PMS5003;48237;50.140;8.486;2023-01-28T06:02:37;7;6;
62249;PMS5003;48237;50.140;8.486;2023-01-28T06:05:05;6;5;
62249;PMS5003;48237;50.140;8.486;2023-01-28T06:07:33;8;7;
62249;PMS5003;48237;50.140;8.486;2023-01-28T06:10:00;7;6;
62249;PMS5003;48237;50.140;8.486;2023-01-28T06:12:27;13;9;
62249;PMS5003;48237;50.140;8.486;2023-01-28T06:14:54;7;7;
62249;PMS5003;48237;50.140;8.486;2023-01-28T06:17:22;7;5;
62249;PMS5003;48237;50.140;8.486;2023-01-28T06:19:49;6;6;
62249;PMS5003;48237;50.140;8.486;2023-01-28T06:22:16;8;6;
62249;PMS5003;48237;50.140;8.486;2023-01-28T06:24:43;7;6;
62249;PMS5003;48237;50.140;8.486;2023-01-28T06:27:11;6;5;
62249;PMS5003;48237;50.140;8.486;2023-01-28T06:29:38;5;4;
62249;PMS5003;48237;50.140;8.486;2023-01-28T06:32:05;8;4;
62249;PMS5003;48237;50.140;8.486;2023-01-28T06:34:33;6;6;
62249;PMS5003;48237;50.140;8.486;2023-01-28T06:37:00;7;6;
62249;PMS5003;48237;50.140;8.486;2023-01-28T06:39:27;7;7;
62249;PMS5003;48237;50.140;8.486;2023-01-28T06:41:54;7;7;
62249;PMS5003;48237;50.140;8.486;2023-01-28T06:44:22;8;7;
62249;PMS5003;48237;50.140;8.486;2023-01-28T06:46:49;8;5;
62249;PMS5003;48237;50.140;8.486;2023-01-28T06:49:16;9;7;
62249;PMS5003;48237;50.140;8.486;2023-01-28T06:51:43;8;4;
62249;PMS5003;48237;50.140;8.486;2023-01-28T06:54:11;8;7;
62249;PMS5003;48237;50.140;8.486;2023-01-28T06:56:38;5;5;
62249;PMS5003;48237;50.140;8.486;2023-01-28T06:59:05;8;5;
62249;PMS5003;48237;50.140;8.486;2023-01-28T07:01:33;6;6;
62249;PMS5003;48237;50.140;8.486;2023-01-28T07:04:00;6;5;
62249;PMS5003;48237;50.140;8.486;2023-01-28T07:06:27;4;4;
62249;PMS5003;48237;50.140;8.486;2023-01-28T07:08:54;7;4;
62249;PMS5003;48237;50.140;8.486;2023-01-28T07:11:22;6;6;
62249;PMS5003;48237;50.140;8.486;2023-01-28T07:13:49;5;5;
62249;PMS5003;48237;50.140;8.486;2023-01-28T07:16:16;6;6;
62249;PMS5003;48237;50.140;8.486;2023-01-28T07:18:43;7;6;
62249;PMS5003;48237;50.140;8.486;2023-01-28T07:21:11;7;6;
62249;PMS5003;48237;50.140;8.486;2023-01-28T07:23:38;10;6;
62249;PMS5003;48237;50.140;8.486;2023-01-28T07:26:05;7;5;
62249;PMS5003;48237;50.140;8.486;2023-01-28T07:28:32;7;6;
62249;PMS5003;48237;50.140;8.486;2023-01-28T07:31:00;7;5;
62249;PMS5003;48237;50.140;8.486;2023-01-28T07:33:27;7;5;
62249;PMS5003;48237;50.140;8.486;2023-01-28T07:35:54;4;4;
62249;PMS5003;48237;50.140;8.486;2023-01-28T07:38:22;5;4;
62249;PMS5003;48237;50.140;8.486;2023-01-28T07:40:49;4;4;
62249;PMS5003;48237;50.140;8.486;2023-01-28T07:43:16;4;4;
62249;PMS5003;48237;50.140;8.486;2023-01-28T07:45:43;7;6;
62249;PMS5003;48237;50.140;8.486;2023-01-28T07:48:11;6;6;
62249;PMS5003;48237;50.140;8.486;2023-01-28T07:50:39;4;4;
62249;PMS5003;48237;50.140;8.486;2023-01-28T07:53:07;6;5;
62249;PMS5003;48237;50.140;8.486;2023-01-28T07:55:35;8;5;
62249;PMS5003;48237;50.140;8.486;2023-01-28T07:58:04;6;6;
62249;PMS5003;48237;50.140;8.486;2023-01-28T08:00:33;3;3;
62249;PMS5003;48237;50.140;8.486;2023-01-28T08:03:02;7;5;
62249;PMS5003;48237;50.140;8.486;2023-01-28T08:05:31;7;5;
62249;PMS5003;48237;50.140;8.486;2023-01-28T08:08:04;6;5;
62249;PMS5003;48237;50.140;8.486;2023-01-28T08:10:32;5;5;
62249;PMS5003;48237;50.140;8.486;2023-01-28T08:13:00;5;5;
62249;PMS5003;48237;50.140;8.486;2023-01-28T08:15:27;5;4;
62249;PMS5003;48237;50.140;8.486;2023-01-28T08:17:56;7;6;
62249;PMS5003;48237;50.140;8.486;2023-01-28T08:20:24;6;4;
62249;PMS5003;48237;50.140;8.486;2023-01-28T08:22:53;5;5;
62249;PMS5003;48237;50.140;8.486;2023-01-28T08:25:29;10;5;
62249;PMS5003;48237;50.140;8.486;2023-01-28T08:27:56;5;5;
62249;PMS5003;48237;50.140;8.486;2023-01-28T08:30:24;5;5;
62249;PMS5003;48237;50.140;8.486;2023-01-28T08:32:54;6;5;
62249;PMS5003;48237;50.140;8.486;2023-01-28T08:35:21;7;5;
62249;PMS5003;48237;50.140;8.486;2023-01-28T08:37:48;4;4;
62249;PMS5003;48237;50.140;8.486;2023-01-28T08:40:15;5;5;
62249;PMS5003;48237;50.140;8.486;2023-01-28T08:42:45;5;3;
62249;PMS5003;48237;50.140;8.486;2023-01-28T08:45:13;6;5;
62249;PMS5003;48237;50.140;8.486;2023-01-28T08:47:46;5;4;
62249;PMS5003;48237;50.140;8.486;2023-01-28T08:50:13;6;5;
62249;PMS5003;48237;50.140;8.486;2023-01-28T08:52:41;6;4;
62249;PMS5003;48237;50.140;8.486;2023-01-28T08:55:09;7;4;
62249;PMS5003;48237;50.140;8.486;2023-01-28T08:57:36;6;5;
62249;PMS5003;48237;50.140;8.486;2023-01-28T09:00:04;6;5;
62249;PMS5003;48237;50.140;8.486;2023-01-28T09:02:34;6;6;
62249;PMS5003;48237;50.140;8.486;2023-01-28T09:05:02;9;5;
62249;PMS5003;48237;50.140;8.486;2023-01-28T09:07:30;8;6;
62249;PMS5003;48237;50.140;8.486;2023-01-28T09:09:57;6;5;
62249;PMS5003;48237;50.140;8.486;2023-01-28T09:12:24;4;4;
62249;PMS5003;48237;50.140;8.486;2023-01-28T09:14:51;6;6;
62249;PMS5003;48237;50.140;8.486;2023-01-28T09:17:18;9;6;
62249;PMS5003;48237;50.140;8.486;2023-01-28T09:19:46;5;5;
62249;PMS5003;48237;50.140;8.486;2023-01-28T09:22:13;6;5;
62249;PMS5003;48237;50.140;8.486;2023-01-28T09:24:40;5;5;
62249;PMS5003;48237;50.140;8.486;2023-01-28T09:27:07;8;7;
62249;PMS5003;48237;50.140;8.486;2023-01-28T09:29:35;5;4;
62249;PMS5003;48237;50.140;8.486;2023-01-28T09:32:02;7;7;
62249;PMS5003;48237;50.140;8.486;2023-01-28T09:34:29;7;5;
62249;PMS5003;48237;50.140;8.486;2023-01-28T09:36:57;8;6;
62249;PMS5003;48237;50.140;8.486;2023-01-28T09:39:24;5;5;
62249;PMS5003;48237;50.140;8.486;2023-01-28T09:41:52;5;4;
62249;PMS5003;48237;50.140;8.486;2023-01-28T09:44:30;10;5;
62249;PMS5003;48237;50.140;8.486;2023-01-28T09:47:08;5;5;
62249;PMS5003;48237;50.140;8.486;2023-01-28T09:49:46;5;5;
62249;PMS5003;48237;50.140;8.486;2023-01-28T09:52:17;8;5;
62249;PMS5003;48237;50.140;8.486;2023-01-28T09:54:48;4;4;
62249;PMS5003;48237;50.140;8.486;2023-01-28T09:57:18;5;3;
62249;PMS5003;48237;50.140;8.486;2023-01-28T09:59:48;6;5;
62249;PMS5003;48237;50.140;8.486;2023-01-28T10:02:20;5;5;
62249;PMS5003;48237;50.140;8.486;2023-01-28T10:04:58;6;5;
62249;PMS5003;48237;50.140;8.486;2023-01-28T10:07:40;7;5;
62249;PMS5003;48237;50.140;8.486;2023-01-28T10:10:14;5;4;
62249;PMS5003;48237;50.140;8.486;2023-01-28T10:12:49;5;5;
62249;PMS5003;48237;50.140;8.486;2023-01-28T10:15:28;4;4;
62249;PMS5003;48237;50.140;8.486;2023-01-28T10:18:13;5;5;
62249;PMS5003;48237;50.140;8.486;2023-01-28T10:20:41;3;3;
62249;PMS5003;48237;50.140;8.486;2023-01-28T10:23:12;3;3;
62249;PMS5003;48237;50.140;8.486;2023-01-28T10:25:45;6;4;
62249;PMS5003;48237;50.140;8.486;2023-01-28T10:28:16;4;4;
62249;PMS5003;48237;50.140;8.486;2023-01-28T10:30:47;3;3;
62249;PMS5003;48237;50.140;8.486;2023-01-28T10:33:16;4;4;
62249;PMS5003;48237;50.140;8.486;2023-01-28T10:35:45;5;5;
62249;PMS5003;48237;50.140;8.486;2023-01-28T10:38:13;7;6;
62249;PMS5003;48237;50.140;8.486;2023-01-28T10:40:42;6;4;
62249;PMS5003;48237;50.140;8.486;2023-01-28T10:43:11;6;6;
62249;PMS5003;48237;50.140;8.486;2023-01-28T10:45:39;6;5;
62249;PMS5003;48237;50.140;8.486;2023-01-28T10:48:22;6;4;
62249;PMS5003;48237;50.140;8.486;2023-01-28T10:50:53;4;4;
62249;PMS5003;48237;50.140;8.486;2023-01-28T10:53:32;6;5;
62249;PMS5003;48237;50.140;8.486;2023-01-28T10:56:00;8;6;
62249;PMS5003;48237;50.140;8.486;2023-01-28T10:58:30;6;5;
62249;PMS5003;48237;50.140;8.486;2023-01-28T11:01:02;9;5;
62249;PMS5003;48237;50.140;8.486;2023-01-28T11:03:31;5;5;
62249;PMS5003;48237;50.140;8.486;2023-01-28T11:05:59;4;4;
62249;PMS5003;48237;50.140;8.486;2023-01-28T11:08:28;4;4;
62249;PMS5003;48237;50.140;8.486;2023-01-28T11:10:57;4;3;
62249;PMS5003;48237;50.140;8.486;2023-01-28T11:13:24;6;5;
62249;PMS5003;48237;50.140;8.486;2023-01-28T11:15:59;6;6;
62249;PMS5003;48237;50.140;8.486;2023-01-28T11:18:30;5;3;
62249;PMS5003;48237;50.140;8.486;2023-01-28T11:20:59;6;6;
62249;PMS5003;48237;50.140;8.486;2023-01-28T11:23:29;6;6;
62249;PMS5003;48237;50.140;8.486;2023-01-28T11:26:02;6;4;
62249;PMS5003;48237;50.140;8.486;2023-01-28T11:28:31;7;5;
62249;PMS5003;48237;50.140;8.486;2023-01-28T11:31:00;4;4;
62249;PMS5003;48237;50.140;8.486;2023-01-28T11:33:31;7;4;
62249;PMS5003;48237;50.140;8.486;2023-01-28T11:36:04;8;5;
62249;PMS5003;48237;50.140;8.486;2023-01-28T11:38:34;14;11;
62249;PMS5003;48237;50.140;8.486;2023-01-28T11:41:01;5;4;
62249;PMS5003;48237;50.140;8.486;2023-01-28T11:43:29;5;5;
62249;PMS5003;48237;50.140;8.486;2023-01-28T11:45:59;4;4;
62249;PMS5003;48237;50.140;8.486;2023-01-28T11:48:38;3;3;
62249;PMS5003;48237;50.140;8.486;2023-01-28T11:51:21;6;6;
62249;PMS5003;48237;50.140;8.486;2023-01-28T11:54:01;5;5;
62249;PMS5003;48237;50.140;8.486;2023-01-28T11:56:46;15;8;
62249;PMS5003;48237;50.140;8.486;2023-01-28T11:59:27;13;12;
62249;PMS5003;48237;50.140;8.486;2023-01-28T12:02:13;10;8;
62249;PMS5003;48237;50.140;8.486;2023-01-28T12:04:54;15;9;
62249;PMS5003;48237;50.140;8.486;2023-01-28T12:07:37;25;18;
62249;PMS5003;48237;50.140;8.486;2023-01-28T12:10:13;11;9;
62249;PMS5003;48237;50.140;8.486;2023-01-28T12:12:52;5;4;
62249;PMS5003;48237;50.140;8.486;2023-01-28T12:15:36;5;5;
62249;PMS5003;48237;50.140;8.486;2023-01-28T12:18:24;13;11;
62249;PMS5003;48237;50.140;8.486;2023-01-28T12:21:03;15;12;
62249;PMS5003;48237;50.140;8.486;2023-01-28T12:23:34;4;4;
62249;PMS5003;48237;50.140;8.486;2023-01-28T12:26:14;12;12;
62249;PMS5003;48237;50.140;8.486;2023-01-28T12:28:51;5;5;
62249;PMS5003;48237;50.140;8.486;2023-01-28T12:31:32;14;8;
62249;PMS5003;48237;50.140;8.486;2023-01-28T12:34:33;15;11;
62249;PMS5003;48237;50.140;8.486;2023-01-28T12:37:12;11;7;
62249;PMS5003;48237;50.140;8.486;2023-01-28T12:39:50;13;8;
62249;PMS5003;48237;50.140;8.486;2023-01-28T12:42:30;24;18;
62249;PMS5003;48237;50.140;8.486;2023-01-28T12:45:03;10;7;
62249;PMS5003;48237;50.140;8.486;2023-01-28T12:47:41;19;12;
62249;PMS5003;48237;50.140;8.486;2023-01-28T12:50:16;3;3;
62249;PMS5003;48237;50.140;8.486;2023-01-28T12:52:48;7;3;
62249;PMS5003;48237;50.140;8.486;2023-01-28T12:55:21;3;3;
62249;PMS5003;48237;50.140;8.486;2023-01-28T12:58:03;4;4;
62249;PMS5003;48237;50.140;8.486;2023-01-28T13:00:33;3;3;
62249;PMS5003;48237;50.140;8.486;2023-01-28T13:03:08;6;6;
62249;PMS5003;48237;50.140;8.486;2023-01-28T13:05:40;8;5;
62249;PMS5003;48237;50.140;8.486;2023-01-28T13:08:15;6;5;
62249;PMS5003;48237;50.140;8.486;2023-01-28T13:10:48;6;5;
62249;PMS5003;48237;50.140;8.486;2023-01-28T13:13:16;5;5;
62249;PMS5003;48237;50.140;8.486;2023-01-28T13:15:48;3;3;
62249;PMS5003;48237;50.140;8.486;2023-01-28T13:18:33;6;6;
62249;PMS5003;48237;50.140;8.486;2023-01-28T13:21:11;4;4;
62249;PMS5003;48237;50.140;8.486;2023-01-28T13:23:42;10;8;
62249;PMS5003;48237;50.140;8.486;2023-01-28T13:26:23;5;5;
62249;PMS5003;48237;50.140;8.486;2023-01-28T13:28:56;9;6;
62249;PMS5003;48237;50.140;8.486;2023-01-28T13:31:36;4;4;
62249;PMS5003;48237;50.140;8.486;2023-01-28T13:34:05;7;6;
62249;PMS5003;48237;50.140;8.486;2023-01-28T13:36:33;5;5;
62249;PMS5003;48237;50.140;8.486;2023-01-28T13:39:05;8;6;
62249;PMS5003;48237;50.140;8.486;2023-01-28T13:41:41;6;6;
62249;PMS5003;48237;50.140;8.486;2023-01-28T13:44:18;9;5;
62249;PMS5003;48237;50.140;8.486;2023-01-28T13:46:51;6;6;
62249;PMS5003;48237;50.140;8.486;2023-01-28T13:49:20;4;4;
62249;PMS5003;48237;50.140;8.486;2023-01-28T13:52:00;13;10;
62249;PMS5003;48237;50.140;8.486;2023-01-28T13:54:33;10;5;
62249;PMS5003;48237;50.140;8.486;2023-01-28T13:57:06;7;6;
62249;PMS5003;48237;50.140;8.486;2023-01-28T13:59:48;10;7;
62249;PMS5003;48237;50.140;8.486;2023-01-28T14:02:34;4;4;
62249;PMS5003;48237;50.140;8.486;2023-01-28T14:05:27;7;7;
62249;PMS5003;48237;50.140;8.486;2023-01-28T14:08:34;8;6;
62249;PMS5003;48237;50.140;8.486;2023-01-28T14:11:25;11;8;
62249;PMS5003;48237;50.140;8.486;2023-01-28T14:14:18;34;25;
62249;PMS5003;48237;50.140;8.486;2023-01-28T14:16:59;11;8;
62249;PMS5003;48237;50.140;8.486;2023-01-28T14:19:35;9;7;
62249;PMS5003;48237;50.140;8.486;2023-01-28T14:22:05;6;5;
62249;PMS5003;48237;50.140;8.486;2023-01-28T14:24:33;10;7;
62249;PMS5003;48237;50.140;8.486;2023-01-28T14:27:04;15;14;
62249;PMS5003;48237;50.140;8.486;2023-01-28T14:29:44;8;4;
62249;PMS5003;48237;50.140;8.486;2023-01-28T14:32:20;6;6;
62249;PMS5003;48237;50.140;8.486;2023-01-28T14:34:52;5;5;
62249;PMS5003;48237;50.140;8.486;2023-01-28T14:37:21;5;5;
62249;PMS5003;48237;50.140;8.486;2023-01-28T14:39:52;5;5;
62249;PMS5003;48237;50.140;8.486;2023-01-28T14:42:24;5;5;
62249;PMS5003;48237;50.140;8.486;2023-01-28T14:44:57;9;4;
62249;PMS5003;48237;50.140;8.486;2023-01-28T14:47:38;7;6;
62249;PMS5003;48237;50.140;8.486;2023-01-28T14:50:21;7;5;
62249;PMS5003;48237;50.140;8.486;2023-01-28T14:53:00;8;5;
62249;PMS5003;48237;50.140;8.486;2023-01-28T14:55:47;9;6;
62249;PMS5003;48237;50.140;8.486;2023-01-28T14:58:19;6;5;
62249;PMS5003;48237;50.140;8.486;2023-01-28T15:00:53;6;6;
62249;PMS5003;48237;50.140;8.486;2023-01-28T15:03:21;8;8;
62249;PMS5003;48237;50.140;8.486;2023-01-28T15:05:49;7;6;
62249;PMS5003;48237;50.140;8.486;2023-01-28T15:08:26;9;9;
62249;PMS5003;48237;50.140;8.486;2023-01-28T15:10:53;4;4;
62249;PMS5003;48237;50.140;8.486;2023-01-28T15:13:22;9;6;
62249;PMS5003;48237;50.140;8.486;2023-01-28T15:15:52;7;6;
62249;PMS5003;48237;50.140;8.486;2023-01-28T15:18:22;18;12;
62249;PMS5003;48237;50.140;8.486;2023-01-28T15:20:55;9;7;
62249;PMS5003;48237;50.140;8.486;2023-01-28T15:23:25;8;7;
62249;PMS5003;48237;50.140;8.486;2023-01-28T15:25:54;19;17;
62249;PMS5003;48237;50.140;8.486;2023-01-28T15:28:24;14;8;
62249;PMS5003;48237;50.140;8.486;2023-01-28T15:30:53;13;10;
62249;PMS5003;48237;50.140;8.486;2023-01-28T15:33:21;7;5;
62249;PMS5003;48237;50.140;8.486;2023-01-28T15:35:49;8;6;
62249;PMS5003;48237;50.140;8.486;2023-01-28T15:38:18;5;5;
62249;PMS5003;48237;50.140;8.486;2023-01-28T15:40:47;5;5;
62249;PMS5003;48237;50.140;8.486;2023-01-28T15:43:17;6;6;
62249;PMS5003;48237;50.140;8.486;2023-01-28T15:45:49;6;6;
62249;PMS5003;48237;50.140;8.486;2023-01-28T15:48:19;7;7;
62249;PMS5003;48237;50.140;8.486;2023-01-28T15:50:56;9;7;
62249;PMS5003;48237;50.140;8.486;2023-01-28T15:53:24;8;6;
62249;PMS5003;48237;50.140;8.486;2023-01-28T15:56:02;7;6;
62249;PMS5003;48237;50.140;8.486;2023-01-28T15:58:31;8;6;
62249;PMS5003;48237;50.140;8.486;2023-01-28T16:01:03;9;9;
62249;PMS5003;48237;50.140;8.486;2023-01-28T16:03:39;6;4;
62249;PMS5003;48237;50.140;8.486;2023-01-28T16:06:08;6;5;
62249;PMS5003;48237;50.140;8.486;2023-01-28T16:08:38;21;15;
62249;PMS5003;48237;50.140;8.486;2023-01-28T16:11:10;36;19;
62249;PMS5003;48237;50.140;8.486;2023-01-28T16:13:40;30;20;
62249;PMS5003;48237;50.140;8.486;2023-01-28T16:16:09;26;18;
62249;PMS5003;48237;50.140;8.486;2023-01-28T16:18:39;43;26;
62249;PMS5003;48237;50.140;8.486;2023-01-28T16:21:08;23;19;
62249;PMS5003;48237;50.140;8.486;2023-01-28T16:23:38;24;16;
62249;PMS5003;48237;50.140;8.486;2023-01-28T16:26:06;9;7;
62249;PMS5003;48237;50.140;8.486;2023-01-28T16:28:47;10;7;
62249;PMS5003;48237;50.140;8.486;2023-01-28T16:31:14;15;10;
62249;PMS5003;48237;50.140;8.486;2023-01-28T16:33:41;29;16;
62249;PMS5003;48237;50.140;8.486;2023-01-28T16:36:14;15;10;
62249;PMS5003;48237;50.140;8.486;2023-01-28T16:38:43;22;17;
62249;PMS5003;48237;50.140;8.486;2023-01-28T16:41:12;15;9;
62249;PMS5003;48237;50.140;8.486;2023-01-28T16:43:41;16;12;
62249;PMS5003;48237;50.140;8.486;2023-01-28T16:46:10;26;22;
62249;PMS5003;48237;50.140;8.486;2023-01-28T16:48:38;23;16;
62249;PMS5003;48237;50.140;8.486;2023-01-28T16:51:05;21;19;
62249;PMS5003;48237;50.140;8.486;2023-01-28T16:53:36;22;18;
62249;PMS5003;48237;50.140;8.486;2023-01-28T16:56:04;32;21;
62249;PMS5003;48237;50.140;8.486;2023-01-28T16:58:31;149;88;
62249;PMS5003;48237;50.140;8.486;2023-01-28T17:00:58;118;71;
62249;PMS5003;48237;50.140;8.486;2023-01-28T17:03:25;94;54;
62249;PMS5003;48237;50.140;8.486;2023-01-28T17:05:52;50;32;
62249;PMS5003;48237;50.140;8.486;2023-01-28T17:08:19;21;16;
62249;PMS5003;48237;50.140;8.486;2023-01-28T17:10:50;19;17;